Time,TemperatureF,DewpointF,PressureIn,WindDirection,WindDirectionDegrees,WindSpeedMPH,WindSpeedGustMPH,Humidity,HourlyPrecipIn,Conditions,Clouds,dailyrainin,SoftwareType,DateUTC
2014-01-05 00:04:00,75.7,69.8,30.08,SSW,203,2.0,-999.0,82,0.00,,,0.00,Wunderground v.1.15,2014-01-05 05:04:00,
2014-01-05 00:09:00,75.7,69.8,30.07,East,90,3.0,-999.0,82,0.00,,,0.00,Wunderground v.1.15,2014-01-05 05:09:00,
2014-01-05 00:14:00,75.6,69.7,30.06,SE,135,2.0,-999.0,82,0.00,,,0.00,Wunderground v.1.15,2014-01-05 05:14:00,
2014-01-05 00:19:00,75.5,70.0,30.06,ESE,113,2.0,-999.0,83,0.00,,,0.00,Wunderground v.1.15,2014-01-05 05:19:00,
2014-01-05 00:24:00,75.6,70.8,30.06,SSE,158,3.0,-999.0,85,0.00,,,0.00,Wunderground v.1.15,2014-01-05 05:24:00,
2014-01-05 00:29:00,75.5,70.7,30.06,SSE,158,2.0,-999.0,85,0.00,,,0.00,Wunderground v.1.15,2014-01-05 05:29:00,
2014-01-05 00:34:00,75.3,70.8,30.06,SE,135,2.0,-999.0,86,0.00,,,0.00,Wunderground v.1.15,2014-01-05 05:34:00,
2014-01-05 00:39:00,75.1,70.6,30.05,ENE,68,2.0,-999.0,86,0.00,,,0.00,Wunderground v.1.15,2014-01-05 05:39:00,
2014-01-05 00:44:00,75.0,70.5,30.05,East,90,2.0,-999.0,86,0.00,,,0.00,Wunderground v.1.15,2014-01-05 05:44:00,
2014-01-05 00:49:00,74.9,70.4,30.04,SE,135,2.0,-999.0,86,0.00,,,0.00,Wunderground v.1.15,2014-01-05 05:49:00,
2014-01-05 00:54:00,74.8,70.3,30.04,SSE,158,3.0,-999.0,86,0.00,,,0.00,Wunderground v.1.15,2014-01-05 05:54:00,
2014-01-05 00:59:00,74.8,70.3,30.04,ENE,68,2.0,-999.0,86,0.00,,,0.00,Wunderground v.1.15,2014-01-05 05:59:00,
2014-01-05 01:04:00,74.8,70.3,30.04,South,180,3.0,-999.0,86,0.00,,,0.00,Wunderground v.1.15,2014-01-05 06:04:00,
2014-01-05 01:09:00,74.7,70.2,30.04,SSE,158,3.0,-999.0,86,0.00,,,0.00,Wunderground v.1.15,2014-01-05 06:09:00,
2014-01-05 01:14:00,74.6,70.1,30.04,SE,135,2.0,-999.0,86,0.00,,,0.00,Wunderground v.1.15,2014-01-05 06:14:00,
2014-01-05 01:19:00,74.6,70.1,30.04,ESE,113,3.0,-999.0,86,0.00,,,0.00,Wunderground v.1.15,2014-01-05 06:19:00,
2014-01-05 01:24:00,74.6,69.8,30.04,ENE,68,2.0,-999.0,85,0.00,,,0.00,Wunderground v.1.15,2014-01-05 06:24:00,
2014-01-05 01:29:00,74.5,69.3,30.04,East,90,3.0,-999.0,84,0.00,,,0.00,Wunderground v.1.15,2014-01-05 06:29:00,
2014-01-05 01:34:00,74.4,68.5,30.04,SSE,158,3.0,-999.0,82,0.00,,,0.00,Wunderground v.1.15,2014-01-05 06:34:00,
2014-01-05 01:39:00,74.4,68.2,30.04,East,90,2.0,-999.0,81,0.00,,,0.00,Wunderground v.1.15,2014-01-05 06:39:00,
2014-01-05 01:44:00,74.6,68.0,30.04,ESE,113,2.0,-999.0,80,0.00,,,0.00,Wunderground v.1.15,2014-01-05 06:44:00,
2014-01-05 01:49:00,74.7,67.8,30.03,ESE,113,2.0,-999.0,79,0.00,,,0.00,Wunderground v.1.15,2014-01-05 06:49:00,
2014-01-05 01:54:00,74.9,68.3,30.03,SE,135,2.0,-999.0,80,0.00,,,0.00,Wunderground v.1.15,2014-01-05 06:54:00,
2014-01-05 01:59:00,74.9,68.3,30.03,SE,135,1.0,-999.0,80,0.00,,,0.00,Wunderground v.1.15,2014-01-05 06:59:00,
2014-01-05 02:04:00,74.8,68.2,30.03,SSE,158,4.0,-999.0,80,0.00,,,0.00,Wunderground v.1.15,2014-01-05 07:04:00,
2014-01-05 02:09:00,74.8,68.2,30.03,SSW,203,2.0,-999.0,80,0.00,,,0.00,Wunderground v.1.15,2014-01-05 07:09:00,
2014-01-05 02:14:00,74.8,67.8,30.03,SSW,203,3.0,-999.0,79,0.00,,,0.00,Wunderground v.1.15,2014-01-05 07:14:00,
2014-01-05 02:19:00,74.8,67.5,30.03,South,180,3.0,-999.0,78,0.00,,,0.00,Wunderground v.1.15,2014-01-05 07:19:00,
2014-01-05 02:24:00,74.9,67.2,30.03,SSE,158,3.0,-999.0,77,0.00,,,0.00,Wunderground v.1.15,2014-01-05 07:24:00,
2014-01-05 02:29:00,75.1,67.8,30.03,SSW,203,2.0,-999.0,78,0.00,,,0.00,Wunderground v.1.15,2014-01-05 07:29:00,
2014-01-05 02:34:00,75.0,68.0,30.03,SSW,203,2.0,-999.0,79,0.00,,,0.00,Wunderground v.1.15,2014-01-05 07:34:00,
2014-01-05 02:39:00,74.8,67.8,30.03,SSW,203,2.0,-999.0,79,0.00,,,0.00,Wunderground v.1.15,2014-01-05 07:39:00,
2014-01-05 02:44:00,74.7,67.4,30.02,South,180,3.0,-999.0,78,0.00,,,0.00,Wunderground v.1.15,2014-01-05 07:44:00,
2014-01-05 02:49:00,74.7,67.4,30.02,SSW,203,2.0,-999.0,78,0.00,,,0.00,Wunderground v.1.15,2014-01-05 07:49:00,
2014-01-05 02:54:00,74.7,67.4,30.02,SSW,203,3.0,-999.0,78,0.00,,,0.00,Wunderground v.1.15,2014-01-05 07:54:00,
2014-01-05 02:59:00,74.6,66.9,30.02,SSW,203,2.0,-999.0,77,0.00,,,0.00,Wunderground v.1.15,2014-01-05 07:59:00,
2014-01-05 03:04:00,74.6,66.5,30.02,SSW,203,3.0,-999.0,76,0.00,,,0.00,Wunderground v.1.15,2014-01-05 08:04:00,
2014-01-05 03:09:00,74.7,66.6,30.02,SSW,203,3.0,-999.0,76,0.00,,,0.00,Wunderground v.1.15,2014-01-05 08:09:00,
2014-01-05 03:14:00,74.8,66.7,30.02,SW,225,1.0,-999.0,76,0.00,,,0.00,Wunderground v.1.15,2014-01-05 08:14:00,
2014-01-05 03:19:00,74.6,66.9,30.01,SSW,203,1.0,-999.0,77,0.00,,,0.00,Wunderground v.1.15,2014-01-05 08:19:00,
2014-01-05 03:24:00,74.5,66.8,30.01,SE,135,0.0,-999.0,77,0.00,,,0.00,Wunderground v.1.15,2014-01-05 08:24:00,
2014-01-05 03:29:00,74.6,67.3,30.01,SW,225,1.0,-999.0,78,0.00,,,0.00,Wunderground v.1.15,2014-01-05 08:29:00,
2014-01-05 03:34:00,74.6,67.3,30.01,SSW,203,1.0,-999.0,78,0.00,,,0.00,Wunderground v.1.15,2014-01-05 08:34:00,
2014-01-05 03:39:00,75.0,68.4,30.00,SSE,158,2.0,-999.0,80,0.00,,,0.00,Wunderground v.1.15,2014-01-05 08:39:00,
2014-01-05 03:44:00,75.4,69.2,30.00,SSE,158,3.0,-999.0,81,0.00,,,0.00,Wunderground v.1.15,2014-01-05 08:44:00,
2014-01-05 03:49:00,75.4,68.8,29.99,SSE,158,2.0,-999.0,80,0.00,,,0.00,Wunderground v.1.15,2014-01-05 08:49:00,
2014-01-05 03:54:00,75.3,68.7,29.99,South,180,3.0,-999.0,80,0.00,,,0.00,Wunderground v.1.15,2014-01-05 08:54:00,
2014-01-05 03:59:00,75.3,68.7,29.99,SSE,158,2.0,-999.0,80,0.00,,,0.00,Wunderground v.1.15,2014-01-05 08:59:00,
2014-01-05 04:04:00,75.2,67.9,29.98,SSE,158,3.0,-999.0,78,0.00,,,0.00,Wunderground v.1.15,2014-01-05 09:04:00,
2014-01-05 04:09:00,75.5,67.8,29.98,SSE,158,3.0,-999.0,77,0.00,,,0.00,Wunderground v.1.15,2014-01-05 09:09:00,
2014-01-05 04:14:00,75.8,68.1,29.99,South,180,4.0,-999.0,77,0.00,,,0.00,Wunderground v.1.15,2014-01-05 09:14:00,
2014-01-05 04:19:00,76.2,68.5,29.98,South,180,7.0,-999.0,77,0.00,,,0.00,Wunderground v.1.15,2014-01-05 09:19:00,
2014-01-05 04:24:00,76.4,68.7,29.98,SSE,158,6.0,-999.0,77,0.00,,,0.00,Wunderground v.1.15,2014-01-05 09:24:00,
2014-01-05 04:29:00,76.5,69.5,29.98,SSE,158,6.0,-999.0,79,0.00,,,0.00,Wunderground v.1.15,2014-01-05 09:29:00,
2014-01-05 04:34:00,76.4,69.8,29.98,SSW,203,7.0,-999.0,80,0.00,,,0.00,Wunderground v.1.15,2014-01-05 09:34:00,
2014-01-05 04:39:00,76.4,70.1,29.98,SSW,203,6.0,-999.0,81,0.00,,,0.00,Wunderground v.1.15,2014-01-05 09:39:00,
2014-01-05 04:44:00,76.3,70.4,29.98,South,180,5.0,-999.0,82,0.00,,,0.00,Wunderground v.1.15,2014-01-05 09:44:00,
2014-01-05 04:49:00,76.1,70.6,29.98,South,180,6.0,-999.0,83,0.00,,,0.00,Wunderground v.1.15,2014-01-05 09:49:00,
2014-01-05 04:54:00,75.9,70.4,29.98,SSW,203,7.0,-999.0,83,0.00,,,0.00,Wunderground v.1.15,2014-01-05 09:54:00,
2014-01-05 04:59:00,75.9,70.7,29.98,SSW,203,5.0,-999.0,84,0.00,,,0.00,Wunderground v.1.15,2014-01-05 09:59:00,
2014-01-05 05:04:00,75.8,70.6,29.98,SSW,203,5.0,-999.0,84,0.00,,,0.00,Wunderground v.1.15,2014-01-05 10:04:00,
2014-01-05 05:09:00,75.6,70.8,29.97,SSE,158,4.0,-999.0,85,0.00,,,0.00,Wunderground v.1.15,2014-01-05 10:09:00,
2014-01-05 05:14:00,75.5,70.3,29.97,SSE,158,5.0,-999.0,84,0.00,,,0.00,Wunderground v.1.15,2014-01-05 10:14:00,
2014-01-05 05:19:00,75.4,70.6,29.97,SSW,203,3.0,-999.0,85,0.00,,,0.00,Wunderground v.1.15,2014-01-05 10:19:00,
2014-01-05 05:24:00,75.5,70.7,29.97,SSW,203,7.0,-999.0,85,0.00,,,0.00,Wunderground v.1.15,2014-01-05 10:24:00,
2014-01-05 05:29:00,75.5,70.7,29.97,South,180,6.0,-999.0,85,0.00,,,0.00,Wunderground v.1.15,2014-01-05 10:29:00,
2014-01-05 05:34:00,75.5,70.7,29.97,SSW,203,7.0,-999.0,85,0.00,,,0.00,Wunderground v.1.15,2014-01-05 10:34:00,
2014-01-05 05:39:00,75.4,70.6,29.97,SSW,203,7.0,-999.0,85,0.00,,,0.00,Wunderground v.1.15,2014-01-05 10:39:00,
2014-01-05 05:44:00,75.5,70.7,29.96,SSW,203,8.0,-999.0,85,0.00,,,0.00,Wunderground v.1.15,2014-01-05 10:44:00,
2014-01-05 05:49:00,75.6,70.8,29.96,SSW,203,7.0,-999.0,85,0.00,,,0.00,Wunderground v.1.15,2014-01-05 10:49:00,
2014-01-05 05:54:00,75.6,71.1,29.96,SW,225,6.0,-999.0,86,0.00,,,0.00,Wunderground v.1.15,2014-01-05 10:54:00,
2014-01-05 05:59:00,75.7,71.2,29.96,SW,225,8.0,-999.0,86,0.00,,,0.00,Wunderground v.1.15,2014-01-05 10:59:00,
2014-01-05 06:04:00,75.7,71.2,29.96,SSW,203,8.0,-999.0,86,0.00,,,0.00,Wunderground v.1.15,2014-01-05 11:04:00,
2014-01-05 06:09:00,75.8,71.3,29.97,SSW,203,9.0,-999.0,86,0.00,,,0.00,Wunderground v.1.15,2014-01-05 11:09:00,
2014-01-05 06:14:00,75.8,71.3,29.97,SSW,203,9.0,-999.0,86,0.00,,,0.00,Wunderground v.1.15,2014-01-05 11:14:00,
2014-01-05 06:19:00,75.9,71.8,29.97,SSW,203,9.0,-999.0,87,0.00,,,0.00,Wunderground v.1.15,2014-01-05 11:19:00,
2014-01-05 06:24:00,76.0,71.5,29.97,SSW,203,9.0,-999.0,86,0.00,,,0.00,Wunderground v.1.15,2014-01-05 11:24:00,
2014-01-05 06:29:00,76.0,71.5,29.97,SSW,203,8.0,-999.0,86,0.00,,,0.00,Wunderground v.1.15,2014-01-05 11:29:00,
2014-01-05 06:34:00,76.2,71.7,29.97,SW,225,11.0,-999.0,86,0.00,,,0.00,Wunderground v.1.15,2014-01-05 11:34:00,
2014-01-05 06:39:00,76.3,71.8,29.98,SW,225,8.0,-999.0,86,0.00,,,0.00,Wunderground v.1.15,2014-01-05 11:39:00,
2014-01-05 06:44:00,76.3,71.8,29.98,SSW,203,9.0,-999.0,86,0.00,,,0.00,Wunderground v.1.15,2014-01-05 11:44:00,
2014-01-05 06:49:00,76.4,71.9,29.99,SW,225,9.0,-999.0,86,0.00,,,0.00,Wunderground v.1.15,2014-01-05 11:49:00,
2014-01-05 06:54:00,76.5,72.0,29.99,SW,225,8.0,-999.0,86,0.00,,,0.00,Wunderground v.1.15,2014-01-05 11:54:00,
2014-01-05 06:59:00,76.5,72.0,29.99,SSW,203,8.0,-999.0,86,0.00,,,0.00,Wunderground v.1.15,2014-01-05 11:59:00,
2014-01-05 07:04:00,76.6,72.1,30.00,SSW,203,7.0,-999.0,86,0.00,,,0.00,Wunderground v.1.15,2014-01-05 12:04:00,
2014-01-05 07:09:00,76.6,72.1,30.00,SSW,203,8.0,-999.0,86,0.00,,,0.00,Wunderground v.1.15,2014-01-05 12:09:00,
2014-01-05 07:14:00,76.7,71.8,30.00,SSW,203,8.0,-999.0,85,0.00,,,0.00,Wunderground v.1.15,2014-01-05 12:14:00,
2014-01-05 07:19:00,76.8,71.9,30.01,SW,225,10.0,-999.0,85,0.00,,,0.00,Wunderground v.1.15,2014-01-05 12:19:00,
2014-01-05 07:24:00,76.9,72.4,30.01,SW,225,9.0,-999.0,86,0.00,,,0.00,Wunderground v.1.15,2014-01-05 12:24:00,
2014-01-05 07:29:00,76.8,72.3,30.01,SW,225,7.0,-999.0,86,0.00,,,0.00,Wunderground v.1.15,2014-01-05 12:29:00,
2014-01-05 07:34:00,76.9,72.4,30.01,SW,225,9.0,-999.0,86,0.00,,,0.00,Wunderground v.1.15,2014-01-05 12:34:00,
2014-01-05 07:39:00,76.9,72.4,30.01,SW,225,10.0,-999.0,86,0.00,,,0.00,Wunderground v.1.15,2014-01-05 12:39:00,
2014-01-05 07:44:00,77.0,72.5,30.02,SW,225,8.0,-999.0,86,0.00,,,0.00,Wunderground v.1.15,2014-01-05 12:44:00,
2014-01-05 07:49:00,77.0,72.1,30.02,SW,225,11.0,-999.0,85,0.00,,,0.00,Wunderground v.1.15,2014-01-05 12:49:00,
2014-01-05 07:54:00,77.1,72.2,30.02,SW,225,10.0,-999.0,85,0.00,,,0.00,Wunderground v.1.15,2014-01-05 12:54:00,
2014-01-05 07:59:00,77.1,72.2,30.02,SW,225,10.0,-999.0,85,0.00,,,0.00,Wunderground v.1.15,2014-01-05 12:59:00,
2014-01-05 08:04:00,77.3,72.4,30.02,SW,225,9.0,-999.0,85,0.00,,,0.00,Wunderground v.1.15,2014-01-05 13:04:00,
2014-01-05 08:09:00,77.4,72.9,30.02,SW,225,8.0,-999.0,86,0.00,,,0.00,Wunderground v.1.15,2014-01-05 13:09:00,
2014-01-05 08:14:00,77.4,72.9,30.03,SW,225,7.0,-999.0,86,0.00,,,0.00,Wunderground v.1.15,2014-01-05 13:14:00,
2014-01-05 08:19:00,77.4,72.5,30.03,SW,225,8.0,-999.0,85,0.00,,,0.00,Wunderground v.1.15,2014-01-05 13:19:00,
2014-01-05 08:24:00,77.5,72.6,30.03,SW,225,8.0,-999.0,85,0.00,,,0.00,Wunderground v.1.15,2014-01-05 13:24:00,
2014-01-05 08:29:00,77.6,72.4,30.03,SW,225,7.0,-999.0,84,0.00,,,0.00,Wunderground v.1.15,2014-01-05 13:29:00,
2014-01-05 08:34:00,77.6,72.4,30.03,SW,225,7.0,-999.0,84,0.00,,,0.00,Wunderground v.1.15,2014-01-05 13:34:00,
2014-01-05 08:39:00,77.7,72.5,30.03,SW,225,6.0,-999.0,84,0.00,,,0.00,Wunderground v.1.15,2014-01-05 13:39:00,
2014-01-05 08:44:00,77.8,72.6,30.03,SW,225,7.0,-999.0,84,0.00,,,0.00,Wunderground v.1.15,2014-01-05 13:44:00,
2014-01-05 08:49:00,77.9,72.7,30.03,SW,225,7.0,-999.0,84,0.00,,,0.00,Wunderground v.1.15,2014-01-05 13:49:00,
2014-01-05 08:54:00,77.9,72.3,30.03,SW,225,6.0,-999.0,83,0.00,,,0.00,Wunderground v.1.15,2014-01-05 13:54:00,
2014-01-05 08:59:00,78.0,72.4,30.03,SW,225,6.0,-999.0,83,0.00,,,0.00,Wunderground v.1.15,2014-01-05 13:59:00,
2014-01-05 09:04:00,78.0,72.8,30.04,SSW,203,4.0,-999.0,84,0.00,,,0.00,Wunderground v.1.15,2014-01-05 14:04:00,
2014-01-05 09:09:00,77.9,72.3,30.04,WSW,248,4.0,-999.0,83,0.00,,,0.00,Wunderground v.1.15,2014-01-05 14:09:00,
2014-01-05 09:14:00,77.9,72.7,30.04,SW,225,4.0,-999.0,84,0.00,,,0.00,Wunderground v.1.15,2014-01-05 14:14:00,
2014-01-05 09:19:00,77.9,72.7,30.04,SW,225,5.0,-999.0,84,0.00,,,0.00,Wunderground v.1.15,2014-01-05 14:19:00,
2014-01-05 09:24:00,77.9,72.7,30.05,WSW,248,5.0,-999.0,84,0.00,,,0.00,Wunderground v.1.15,2014-01-05 14:24:00,
2014-01-05 09:29:00,77.9,72.7,30.05,SW,225,5.0,-999.0,84,0.00,,,0.00,Wunderground v.1.15,2014-01-05 14:29:00,
2014-01-05 09:34:00,77.9,72.7,30.05,WSW,248,4.0,-999.0,84,0.00,,,0.00,Wunderground v.1.15,2014-01-05 14:34:00,
2014-01-05 09:39:00,78.0,72.8,30.05,WSW,248,2.0,-999.0,84,0.00,,,0.00,Wunderground v.1.15,2014-01-05 14:39:00,
2014-01-05 09:44:00,78.0,72.8,30.05,SW,225,5.0,-999.0,84,0.00,,,0.00,Wunderground v.1.15,2014-01-05 14:44:00,
2014-01-05 09:49:00,78.1,72.5,30.05,WSW,248,4.0,-999.0,83,0.00,,,0.00,Wunderground v.1.15,2014-01-05 14:49:00,
2014-01-05 09:54:00,78.4,72.8,30.05,WSW,248,4.0,-999.0,83,0.00,,,0.00,Wunderground v.1.15,2014-01-05 14:54:00,
2014-01-05 09:59:00,79.0,73.0,30.05,SW,225,5.0,-999.0,82,0.00,,,0.00,Wunderground v.1.15,2014-01-05 14:59:00,
2014-01-05 10:04:00,79.2,72.9,30.04,SW,225,6.0,-999.0,81,0.00,,,0.00,Wunderground v.1.15,2014-01-05 15:04:00,
2014-01-05 10:09:00,79.6,72.9,30.04,SW,225,8.0,-999.0,80,0.00,,,0.00,Wunderground v.1.15,2014-01-05 15:09:00,
2014-01-05 10:14:00,79.7,73.0,30.04,SW,225,6.0,-999.0,80,0.00,,,0.00,Wunderground v.1.15,2014-01-05 15:14:00,
2014-01-05 10:19:00,80.1,73.0,30.04,SW,225,5.0,-999.0,79,0.00,,,0.00,Wunderground v.1.15,2014-01-05 15:19:00,
2014-01-05 10:24:00,80.4,73.7,30.04,SW,225,6.0,-999.0,80,0.00,,,0.00,Wunderground v.1.15,2014-01-05 15:24:00,
2014-01-05 10:29:00,80.6,73.5,30.04,SW,225,6.0,-999.0,79,0.00,,,0.00,Wunderground v.1.15,2014-01-05 15:29:00,
2014-01-05 10:34:00,80.6,73.5,30.03,SW,225,7.0,-999.0,79,0.00,,,0.00,Wunderground v.1.15,2014-01-05 15:34:00,
2014-01-05 10:39:00,80.7,73.2,30.03,SW,225,7.0,-999.0,78,0.00,,,0.00,Wunderground v.1.15,2014-01-05 15:39:00,
2014-01-05 10:44:00,80.7,73.6,30.03,SW,225,6.0,-999.0,79,0.00,,,0.00,Wunderground v.1.15,2014-01-05 15:44:00,
2014-01-05 10:49:00,80.7,73.6,30.03,SW,225,5.0,-999.0,79,0.00,,,0.00,Wunderground v.1.15,2014-01-05 15:49:00,
2014-01-05 10:54:00,80.5,73.4,30.03,SW,225,8.0,-999.0,79,0.00,,,0.00,Wunderground v.1.15,2014-01-05 15:54:00,
2014-01-05 10:59:00,80.3,73.6,30.02,SW,225,6.0,-999.0,80,0.00,,,0.00,Wunderground v.1.15,2014-01-05 15:59:00,
2014-01-05 11:04:00,80.5,73.8,30.02,SW,225,7.0,-999.0,80,0.00,,,0.00,Wunderground v.1.15,2014-01-05 16:04:00,
2014-01-05 11:09:00,80.5,73.8,30.03,SW,225,6.0,-999.0,80,0.00,,,0.00,Wunderground v.1.15,2014-01-05 16:09:00,
2014-01-05 11:14:00,80.8,73.7,30.02,SW,225,6.0,-999.0,79,0.00,,,0.00,Wunderground v.1.15,2014-01-05 16:14:00,
2014-01-05 11:19:00,80.8,73.7,30.02,SW,225,7.0,-999.0,79,0.00,,,0.00,Wunderground v.1.15,2014-01-05 16:19:00,
2014-01-05 11:24:00,80.8,73.3,30.02,SW,225,5.0,-999.0,78,0.00,,,0.00,Wunderground v.1.15,2014-01-05 16:24:00,
2014-01-05 11:29:00,80.5,73.4,30.02,SW,225,6.0,-999.0,79,0.00,,,0.00,Wunderground v.1.15,2014-01-05 16:29:00,
2014-01-05 11:34:00,80.2,73.5,30.02,SW,225,6.0,-999.0,80,0.00,,,0.00,Wunderground v.1.15,2014-01-05 16:34:00,
2014-01-05 11:39:00,80.2,73.8,30.02,SW,225,6.0,-999.0,81,0.00,,,0.00,Wunderground v.1.15,2014-01-05 16:39:00,
2014-01-05 11:44:00,80.7,74.0,30.01,SW,225,6.0,-999.0,80,0.00,,,0.00,Wunderground v.1.15,2014-01-05 16:44:00,
2014-01-05 11:49:00,80.9,73.8,30.02,SW,225,7.0,-999.0,79,0.00,,,0.00,Wunderground v.1.15,2014-01-05 16:49:00,
2014-01-05 11:54:00,80.9,73.8,30.02,SW,225,8.0,-999.0,79,0.00,,,0.00,Wunderground v.1.15,2014-01-05 16:54:00,
2014-01-05 11:59:00,81.3,74.2,30.01,SW,225,6.0,-999.0,79,0.00,,,0.00,Wunderground v.1.15,2014-01-05 16:59:00,
2014-01-05 12:04:00,81.0,73.5,30.01,SW,225,9.0,-999.0,78,0.00,,,0.00,Wunderground v.1.15,2014-01-05 17:04:00,
2014-01-05 12:09:00,80.8,73.7,30.01,SW,225,8.0,-999.0,79,0.00,,,0.00,Wunderground v.1.15,2014-01-05 17:09:00,
2014-01-05 12:14:00,80.3,73.2,30.01,SW,225,9.0,-999.0,79,0.00,,,0.00,Wunderground v.1.15,2014-01-05 17:14:00,
2014-01-05 12:19:00,80.0,73.3,30.00,SW,225,9.0,-999.0,80,0.00,,,0.00,Wunderground v.1.15,2014-01-05 17:19:00,
2014-01-05 12:24:00,80.3,73.9,30.00,SW,225,7.0,-999.0,81,0.00,,,0.00,Wunderground v.1.15,2014-01-05 17:24:00,
2014-01-05 12:29:00,80.6,73.5,30.00,SW,225,7.0,-999.0,79,0.00,,,0.00,Wunderground v.1.15,2014-01-05 17:29:00,
2014-01-05 12:34:00,81.0,73.9,29.99,SW,225,7.0,-999.0,79,0.00,,,0.00,Wunderground v.1.15,2014-01-05 17:34:00,
2014-01-05 12:39:00,81.5,74.0,29.99,WSW,248,5.0,-999.0,78,0.00,,,0.00,Wunderground v.1.15,2014-01-05 17:39:00,
2014-01-05 12:44:00,81.4,73.1,29.99,SW,225,7.0,-999.0,76,0.00,,,0.00,Wunderground v.1.15,2014-01-05 17:44:00,
2014-01-05 12:49:00,81.0,73.5,29.99,SW,225,8.0,-999.0,78,0.00,,,0.00,Wunderground v.1.15,2014-01-05 17:49:00,
2014-01-05 12:54:00,80.9,73.8,29.98,SSW,203,6.0,-999.0,79,0.00,,,0.00,Wunderground v.1.15,2014-01-05 17:54:00,
2014-01-05 12:59:00,80.8,73.7,29.99,SW,225,7.0,-999.0,79,0.00,,,0.00,Wunderground v.1.15,2014-01-05 17:59:00,
2014-01-05 13:04:00,80.8,73.7,29.98,SW,225,9.0,-999.0,79,0.00,,,0.00,Wunderground v.1.15,2014-01-05 18:04:00,
2014-01-05 13:09:00,80.9,73.4,29.98,SW,225,9.0,-999.0,78,0.00,,,0.00,Wunderground v.1.15,2014-01-05 18:09:00,
2014-01-05 13:14:00,80.8,73.7,29.98,SW,225,7.0,-999.0,79,0.00,,,0.00,Wunderground v.1.15,2014-01-05 18:14:00,
2014-01-05 13:19:00,81.0,73.9,29.98,WSW,248,5.0,-999.0,79,0.00,,,0.00,Wunderground v.1.15,2014-01-05 18:19:00,
2014-01-05 13:24:00,81.1,74.0,29.98,WSW,248,7.0,-999.0,79,0.00,,,0.00,Wunderground v.1.15,2014-01-05 18:24:00,
2014-01-05 13:29:00,80.8,73.3,29.97,SW,225,8.0,-999.0,78,0.00,,,0.00,Wunderground v.1.15,2014-01-05 18:29:00,
2014-01-05 13:34:00,80.5,73.8,29.97,SW,225,8.0,-999.0,80,0.00,,,0.00,Wunderground v.1.15,2014-01-05 18:34:00,
2014-01-05 13:39:00,80.5,73.4,29.97,SW,225,8.0,-999.0,79,0.00,,,0.00,Wunderground v.1.15,2014-01-05 18:39:00,
2014-01-05 13:44:00,80.3,72.8,29.97,SW,225,9.0,-999.0,78,0.00,,,0.00,Wunderground v.1.15,2014-01-05 18:44:00,
2014-01-05 13:49:00,79.9,72.8,29.97,SW,225,8.0,-999.0,79,0.00,,,0.00,Wunderground v.1.15,2014-01-05 18:49:00,
2014-01-05 13:54:00,78.7,71.6,29.97,West,270,7.0,-999.0,79,0.00,,,0.00,Wunderground v.1.15,2014-01-05 18:54:00,
2014-01-05 13:59:00,77.0,71.4,29.97,WSW,248,6.0,-999.0,83,0.00,,,0.00,Wunderground v.1.15,2014-01-05 18:59:00,
2014-01-05 14:04:00,76.5,71.3,29.97,SW,225,5.0,-999.0,84,0.00,,,0.00,Wunderground v.1.15,2014-01-05 19:04:00,
2014-01-05 14:09:00,76.7,71.5,29.97,WSW,248,5.0,-999.0,84,0.00,,,0.00,Wunderground v.1.15,2014-01-05 19:09:00,
2014-01-05 14:14:00,77.2,72.3,29.98,West,270,4.0,-999.0,85,0.00,,,0.00,Wunderground v.1.15,2014-01-05 19:14:00,
2014-01-05 14:19:00,77.5,71.9,29.98,West,270,4.0,-999.0,83,0.00,,,0.00,Wunderground v.1.15,2014-01-05 19:19:00,
2014-01-05 14:24:00,77.7,71.8,29.98,WNW,293,4.0,-999.0,82,0.00,,,0.00,Wunderground v.1.15,2014-01-05 19:24:00,
2014-01-05 14:29:00,78.4,72.1,29.98,SW,225,5.0,-999.0,81,0.00,,,0.00,Wunderground v.1.15,2014-01-05 19:29:00,
2014-01-05 14:34:00,79.2,73.2,29.97,SW,225,3.0,-999.0,82,0.00,,,0.00,Wunderground v.1.15,2014-01-05 19:34:00,
2014-01-05 14:39:00,79.3,73.0,29.97,WNW,293,3.0,-999.0,81,0.00,,,0.00,Wunderground v.1.15,2014-01-05 19:39:00,
2014-01-05 14:44:00,79.6,72.9,29.98,West,270,3.0,-999.0,80,0.00,,,0.00,Wunderground v.1.15,2014-01-05 19:44:00,
2014-01-05 14:49:00,79.6,72.5,29.97,SW,225,4.0,-999.0,79,0.00,,,0.00,Wunderground v.1.15,2014-01-05 19:49:00,
2014-01-05 14:54:00,79.7,72.6,29.97,West,270,4.0,-999.0,79,0.00,,,0.00,Wunderground v.1.15,2014-01-05 19:54:00,
2014-01-05 14:59:00,79.5,72.8,29.97,SW,225,4.0,-999.0,80,0.00,,,0.00,Wunderground v.1.15,2014-01-05 19:59:00,
2014-01-05 15:04:00,79.1,72.4,29.97,WSW,248,4.0,-999.0,80,0.00,,,0.00,Wunderground v.1.15,2014-01-05 20:04:00,
2014-01-05 15:09:00,78.8,72.5,29.97,SW,225,4.0,-999.0,81,0.00,,,0.00,Wunderground v.1.15,2014-01-05 20:09:00,
2014-01-05 15:14:00,78.7,72.7,29.97,SW,225,4.0,-999.0,82,0.00,,,0.00,Wunderground v.1.15,2014-01-05 20:14:00,
2014-01-05 15:19:00,78.2,72.3,29.97,WNW,293,6.0,-999.0,82,0.00,,,0.00,Wunderground v.1.15,2014-01-05 20:19:00,
2014-01-05 15:24:00,77.2,70.9,29.97,WNW,293,4.0,-999.0,81,0.00,,,0.00,Wunderground v.1.15,2014-01-05 20:24:00,
2014-01-05 15:29:00,77.1,70.8,29.97,WNW,293,4.0,-999.0,81,0.00,,,0.00,Wunderground v.1.15,2014-01-05 20:29:00,
2014-01-05 15:34:00,77.5,70.8,29.97,WNW,293,4.0,-999.0,80,0.00,,,0.00,Wunderground v.1.15,2014-01-05 20:34:00,
2014-01-05 15:39:00,77.9,70.5,29.97,WNW,293,3.0,-999.0,78,0.00,,,0.00,Wunderground v.1.15,2014-01-05 20:39:00,
2014-01-05 15:44:00,78.7,71.3,29.98,WSW,248,3.0,-999.0,78,0.00,,,0.00,Wunderground v.1.15,2014-01-05 20:44:00,
2014-01-05 15:49:00,79.0,71.2,29.98,SW,225,5.0,-999.0,77,0.00,,,0.00,Wunderground v.1.15,2014-01-05 20:49:00,
2014-01-05 15:54:00,78.6,71.2,29.98,WSW,248,4.0,-999.0,78,0.00,,,0.00,Wunderground v.1.15,2014-01-05 20:54:00,
2014-01-05 15:59:00,78.3,70.9,29.98,SW,225,5.0,-999.0,78,0.00,,,0.00,Wunderground v.1.15,2014-01-05 20:59:00,
2014-01-05 16:04:00,78.2,71.2,29.98,West,270,3.0,-999.0,79,0.00,,,0.00,Wunderground v.1.15,2014-01-05 21:04:00,
2014-01-05 16:09:00,78.3,70.5,29.99,WNW,293,4.0,-999.0,77,0.00,,,0.00,Wunderground v.1.15,2014-01-05 21:09:00,
2014-01-05 16:14:00,78.7,70.9,29.98,West,270,3.0,-999.0,77,0.00,,,0.00,Wunderground v.1.15,2014-01-05 21:14:00,
2014-01-05 16:19:00,78.9,70.7,29.98,WSW,248,4.0,-999.0,76,0.00,,,0.00,Wunderground v.1.15,2014-01-05 21:19:00,
2014-01-05 16:24:00,79.2,71.0,29.98,WNW,293,3.0,-999.0,76,0.00,,,0.00,Wunderground v.1.15,2014-01-05 21:24:00,
2014-01-05 16:29:00,79.0,70.8,29.98,WNW,293,2.0,-999.0,76,0.00,,,0.00,Wunderground v.1.15,2014-01-05 21:29:00,
2014-01-05 16:34:00,78.4,70.6,29.98,WNW,293,3.0,-999.0,77,0.00,,,0.00,Wunderground v.1.15,2014-01-05 21:34:00,
2014-01-05 16:39:00,78.0,70.2,29.98,WNW,293,3.0,-999.0,77,0.00,,,0.00,Wunderground v.1.15,2014-01-05 21:39:00,
2014-01-05 16:44:00,77.8,70.0,29.99,WNW,293,2.0,-999.0,77,0.00,,,0.00,Wunderground v.1.15,2014-01-05 21:44:00,
2014-01-05 16:49:00,77.7,69.9,29.98,WNW,293,2.0,-999.0,77,0.00,,,0.00,Wunderground v.1.15,2014-01-05 21:49:00,
2014-01-05 16:54:00,77.4,69.6,29.98,WNW,293,3.0,-999.0,77,0.00,,,0.00,Wunderground v.1.15,2014-01-05 21:54:00,
2014-01-05 16:59:00,77.4,69.6,29.98,WNW,293,3.0,-999.0,77,0.00,,,0.00,Wunderground v.1.15,2014-01-05 21:59:00,
2014-01-05 17:04:00,77.5,69.7,29.98,WNW,293,2.0,-999.0,77,0.00,,,0.00,Wunderground v.1.15,2014-01-05 22:04:00,
2014-01-05 17:09:00,77.5,69.7,29.98,WNW,293,2.0,-999.0,77,0.00,,,0.00,Wunderground v.1.15,2014-01-05 22:09:00,
2014-01-05 17:14:00,77.6,69.8,29.98,WNW,293,1.0,-999.0,77,0.00,,,0.00,Wunderground v.1.15,2014-01-05 22:14:00,
2014-01-05 17:19:00,77.8,70.0,29.98,WNW,293,1.0,-999.0,77,0.00,,,0.00,Wunderground v.1.15,2014-01-05 22:19:00,
2014-01-05 17:24:00,78.0,69.8,29.99,WNW,293,2.0,-999.0,76,0.00,,,0.00,Wunderground v.1.15,2014-01-05 22:24:00,
2014-01-05 17:29:00,78.0,69.4,29.99,WNW,293,3.0,-999.0,75,0.00,,,0.00,Wunderground v.1.15,2014-01-05 22:29:00,
2014-01-05 17:34:00,78.0,69.4,29.99,WNW,293,2.0,-999.0,75,0.00,,,0.00,Wunderground v.1.15,2014-01-05 22:34:00,
2014-01-05 17:39:00,78.0,69.4,29.98,WNW,293,1.0,-999.0,75,0.00,,,0.00,Wunderground v.1.15,2014-01-05 22:39:00,
2014-01-05 17:44:00,77.9,69.3,29.99,WNW,293,2.0,-999.0,75,0.00,,,0.00,Wunderground v.1.15,2014-01-05 22:44:00,
2014-01-05 17:49:00,77.9,69.3,29.99,WNW,293,2.0,-999.0,75,0.00,,,0.00,Wunderground v.1.15,2014-01-05 22:49:00,
2014-01-05 17:54:00,77.9,68.9,29.99,WNW,293,4.0,-999.0,74,0.00,,,0.00,Wunderground v.1.15,2014-01-05 22:54:00,
2014-01-05 17:59:00,77.9,68.9,29.99,WNW,293,3.0,-999.0,74,0.00,,,0.00,Wunderground v.1.15,2014-01-05 22:59:00,
2014-01-05 18:04:00,77.9,68.9,29.99,WNW,293,3.0,-999.0,74,0.00,,,0.00,Wunderground v.1.15,2014-01-05 23:04:00,
2014-01-05 18:09:00,77.9,69.3,29.99,WNW,293,2.0,-999.0,75,0.00,,,0.00,Wunderground v.1.15,2014-01-05 23:09:00,
2014-01-05 18:14:00,77.7,68.7,29.99,NW,315,3.0,-999.0,74,0.00,,,0.00,Wunderground v.1.15,2014-01-05 23:14:00,
2014-01-05 18:19:00,77.7,69.1,29.99,WNW,293,2.0,-999.0,75,0.00,,,0.00,Wunderground v.1.15,2014-01-05 23:19:00,
2014-01-05 18:24:00,77.6,68.7,29.99,WNW,293,2.0,-999.0,74,0.00,,,0.00,Wunderground v.1.15,2014-01-05 23:24:00,
2014-01-05 18:29:00,77.6,68.7,30.00,WNW,293,2.0,-999.0,74,0.00,,,0.00,Wunderground v.1.15,2014-01-05 23:29:00,
2014-01-05 18:34:00,77.5,68.6,30.00,WNW,293,2.0,-999.0,74,0.00,,,0.00,Wunderground v.1.15,2014-01-05 23:34:00,
2014-01-05 18:39:00,77.6,68.7,30.00,WNW,293,3.0,-999.0,74,0.00,,,0.00,Wunderground v.1.15,2014-01-05 23:39:00,
2014-01-05 18:44:00,77.5,68.6,30.00,WNW,293,1.0,-999.0,74,0.00,,,0.00,Wunderground v.1.15,2014-01-05 23:44:00,
2014-01-05 18:49:00,77.5,68.2,30.00,WNW,293,2.0,-999.0,73,0.00,,,0.00,Wunderground v.1.15,2014-01-05 23:49:00,
2014-01-05 18:54:00,77.4,68.1,30.00,WNW,293,2.0,-999.0,73,0.00,,,0.00,Wunderground v.1.15,2014-01-05 23:54:00,
2014-01-05 18:59:00,77.4,68.1,30.01,WNW,293,2.0,-999.0,73,0.00,,,0.00,Wunderground v.1.15,2014-01-05 23:59:00,
2014-01-05 19:04:00,77.4,68.1,30.01,WNW,293,2.0,-999.0,73,0.00,,,0.00,Wunderground v.1.15,2014-01-06 00:04:00,
2014-01-05 19:09:00,77.4,68.5,30.01,WNW,293,2.0,-999.0,74,0.00,,,0.00,Wunderground v.1.15,2014-01-06 00:09:00,
2014-01-05 19:14:00,77.4,68.5,30.01,WNW,293,1.0,-999.0,74,0.00,,,0.00,Wunderground v.1.15,2014-01-06 00:14:00,
2014-01-05 19:19:00,77.4,68.5,30.01,WNW,293,1.0,-999.0,74,0.00,,,0.00,Wunderground v.1.15,2014-01-06 00:19:00,
2014-01-05 19:24:00,77.2,68.7,30.01,SW,225,0.0,-999.0,75,0.00,,,0.00,Wunderground v.1.15,2014-01-06 00:24:00,
2014-01-05 19:29:00,77.0,68.5,30.01,SW,225,0.0,-999.0,75,0.00,,,0.00,Wunderground v.1.15,2014-01-06 00:29:00,
2014-01-05 19:34:00,76.7,68.2,30.01,SW,225,0.0,-999.0,75,0.00,,,0.00,Wunderground v.1.15,2014-01-06 00:34:00,
2014-01-05 19:39:00,76.5,68.4,30.02,SW,225,0.0,-999.0,76,0.00,,,0.00,Wunderground v.1.15,2014-01-06 00:39:00,
2014-01-05 19:44:00,76.3,68.2,30.02,West,270,0.0,-999.0,76,0.00,,,0.00,Wunderground v.1.15,2014-01-06 00:44:00,
2014-01-05 19:49:00,76.2,68.5,30.02,WNW,293,1.0,-999.0,77,0.00,,,0.00,Wunderground v.1.15,2014-01-06 00:49:00,
2014-01-05 19:54:00,76.1,68.4,30.02,WNW,293,0.0,-999.0,77,0.00,,,0.00,Wunderground v.1.15,2014-01-06 00:54:00,
2014-01-05 19:59:00,76.0,68.3,30.02,N/A,-737280,0.0,-999.0,77,0.00,,,0.00,Wunderground v.1.15,2014-01-06 00:59:00,
2014-01-05 20:04:00,75.9,68.2,30.02,SW,225,0.0,-999.0,77,0.00,,,0.00,Wunderground v.1.15,2014-01-06 01:04:00,
2014-01-05 20:09:00,75.8,68.4,30.02,SW,225,0.0,-999.0,78,0.00,,,0.00,Wunderground v.1.15,2014-01-06 01:09:00,
2014-01-05 20:14:00,75.7,68.4,30.02,SW,225,0.0,-999.0,78,0.00,,,0.00,Wunderground v.1.15,2014-01-06 01:14:00,
2014-01-05 20:19:00,75.6,68.3,30.02,N/A,-737280,0.0,-999.0,78,0.00,,,0.00,Wunderground v.1.15,2014-01-06 01:19:00,
2014-01-05 20:24:00,75.5,68.5,30.02,SW,225,0.0,-999.0,79,0.00,,,0.00,Wunderground v.1.15,2014-01-06 01:24:00,
2014-01-05 20:29:00,75.4,68.4,30.02,SW,225,1.0,-999.0,79,0.00,,,0.00,Wunderground v.1.15,2014-01-06 01:29:00,
2014-01-05 20:34:00,75.4,68.4,30.02,SW,225,1.0,-999.0,79,0.00,,,0.00,Wunderground v.1.15,2014-01-06 01:34:00,
2014-01-05 20:39:00,75.4,68.4,30.02,SW,225,0.0,-999.0,79,0.00,,,0.00,Wunderground v.1.15,2014-01-06 01:39:00,
2014-01-05 20:44:00,75.3,68.3,30.02,N/A,-737280,0.0,-999.0,79,0.00,,,0.00,Wunderground v.1.15,2014-01-06 01:44:00,
2014-01-05 20:49:00,75.3,68.3,30.03,SW,225,0.0,-999.0,79,0.00,,,0.00,Wunderground v.1.15,2014-01-06 01:49:00,
2014-01-05 20:54:00,75.3,68.3,30.02,SW,225,1.0,-999.0,79,0.00,,,0.00,Wunderground v.1.15,2014-01-06 01:54:00,
2014-01-05 20:59:00,75.2,68.2,30.03,SW,225,1.0,-999.0,79,0.00,,,0.00,Wunderground v.1.15,2014-01-06 01:59:00,
2014-01-05 21:04:00,75.2,68.2,30.03,SW,225,1.0,-999.0,79,0.00,,,0.00,Wunderground v.1.15,2014-01-06 02:04:00,
2014-01-05 21:09:00,75.2,68.6,30.03,SW,225,1.0,-999.0,80,0.00,,,0.00,Wunderground v.1.15,2014-01-06 02:09:00,
2014-01-05 21:14:00,75.2,68.6,30.03,SW,225,0.0,-999.0,80,0.00,,,0.00,Wunderground v.1.15,2014-01-06 02:14:00,
2014-01-05 21:19:00,75.3,68.7,30.02,SW,225,0.0,-999.0,80,0.00,,,0.00,Wunderground v.1.15,2014-01-06 02:19:00,
2014-01-05 21:24:00,75.3,68.7,30.02,WNW,293,0.0,-999.0,80,0.00,,,0.00,Wunderground v.1.15,2014-01-06 02:24:00,
2014-01-05 21:29:00,75.2,69.0,30.03,WSW,248,1.0,-999.0,81,0.00,,,0.00,Wunderground v.1.15,2014-01-06 02:29:00,
2014-01-05 21:34:00,75.2,69.3,30.02,WSW,248,1.0,-999.0,82,0.00,,,0.00,Wunderground v.1.15,2014-01-06 02:34:00,
2014-01-05 21:39:00,75.1,69.2,30.02,SW,225,1.0,-999.0,82,0.00,,,0.00,Wunderground v.1.15,2014-01-06 02:39:00,
2014-01-05 21:44:00,75.0,69.5,30.03,SW,225,0.0,-999.0,83,0.00,,,0.00,Wunderground v.1.15,2014-01-06 02:44:00,
2014-01-05 21:49:00,74.8,69.3,30.03,WSW,248,0.0,-999.0,83,0.00,,,0.00,Wunderground v.1.15,2014-01-06 02:49:00,
2014-01-05 21:54:00,74.6,69.1,30.02,WNW,293,0.0,-999.0,83,0.00,,,0.00,Wunderground v.1.15,2014-01-06 02:54:00,
2014-01-05 21:59:00,74.5,69.3,30.02,WSW,248,0.0,-999.0,84,0.00,,,0.00,Wunderground v.1.15,2014-01-06 02:59:00,
2014-01-05 22:04:00,74.4,69.2,30.02,WSW,248,0.0,-999.0,84,0.00,,,0.00,Wunderground v.1.15,2014-01-06 03:04:00,
2014-01-05 22:09:00,74.3,69.5,30.02,WSW,248,0.0,-999.0,85,0.00,,,0.00,Wunderground v.1.15,2014-01-06 03:09:00,
2014-01-05 22:14:00,74.2,69.4,30.02,N/A,-737280,0.0,-999.0,85,0.00,,,0.00,Wunderground v.1.15,2014-01-06 03:14:00,
2014-01-05 22:19:00,74.0,69.2,30.02,N/A,-737280,0.0,-999.0,85,0.00,,,0.00,Wunderground v.1.15,2014-01-06 03:19:00,
2014-01-05 22:24:00,73.9,69.1,30.02,N/A,-737280,0.0,-999.0,85,0.00,,,0.00,Wunderground v.1.15,2014-01-06 03:24:00,
2014-01-05 22:29:00,73.8,69.3,30.02,N/A,-737280,0.0,-999.0,86,0.00,,,0.00,Wunderground v.1.15,2014-01-06 03:29:00,
2014-01-05 22:34:00,73.7,69.2,30.02,N/A,-737280,0.0,-999.0,86,0.00,,,0.00,Wunderground v.1.15,2014-01-06 03:34:00,
2014-01-05 22:39:00,73.7,69.6,30.01,WSW,248,0.0,-999.0,87,0.00,,,0.00,Wunderground v.1.15,2014-01-06 03:39:00,
2014-01-05 22:44:00,73.7,69.6,30.02,WSW,248,0.0,-999.0,87,0.00,,,0.00,Wunderground v.1.15,2014-01-06 03:44:00,
2014-01-05 22:49:00,73.7,69.6,30.02,N/A,-737280,0.0,-999.0,87,0.00,,,0.00,Wunderground v.1.15,2014-01-06 03:49:00,
2014-01-05 22:54:00,73.8,70.0,30.01,SW,225,1.0,-999.0,88,0.00,,,0.00,Wunderground v.1.15,2014-01-06 03:54:00,
2014-01-05 22:59:00,73.8,70.0,30.01,SW,225,0.0,-999.0,88,0.00,,,0.00,Wunderground v.1.15,2014-01-06 03:59:00,
2014-01-05 23:04:00,73.8,70.0,30.01,SW,225,0.0,-999.0,88,0.00,,,0.00,Wunderground v.1.15,2014-01-06 04:04:00,
2014-01-05 23:09:00,73.8,70.0,30.01,N/A,-737280,0.0,-999.0,88,0.00,,,0.00,Wunderground v.1.15,2014-01-06 04:09:00,
2014-01-05 23:14:00,73.8,70.4,30.01,NW,315,0.0,-999.0,89,0.00,,,0.00,Wunderground v.1.15,2014-01-06 04:14:00,
2014-01-05 23:19:00,73.8,70.4,30.01,WNW,293,0.0,-999.0,89,0.00,,,0.00,Wunderground v.1.15,2014-01-06 04:19:00,
2014-01-05 23:24:00,73.7,70.3,30.00,WNW,293,0.0,-999.0,89,0.00,,,0.00,Wunderground v.1.15,2014-01-06 04:24:00,
2014-01-05 23:29:00,73.7,70.3,30.00,WNW,293,0.0,-999.0,89,0.00,,,0.00,Wunderground v.1.15,2014-01-06 04:29:00,
2014-01-05 23:34:00,73.6,70.2,30.00,WNW,293,0.0,-999.0,89,0.00,,,0.00,Wunderground v.1.15,2014-01-06 04:34:00,
2014-01-05 23:39:00,73.6,70.5,30.00,WNW,293,0.0,-999.0,90,0.00,,,0.00,Wunderground v.1.15,2014-01-06 04:39:00,
2014-01-05 23:44:00,73.5,70.4,30.00,SW,225,0.0,-999.0,90,0.00,,,0.00,Wunderground v.1.15,2014-01-06 04:44:00,
2014-01-05 23:49:00,73.4,70.3,30.00,N/A,-737280,0.0,-999.0,90,0.00,,,0.00,Wunderground v.1.15,2014-01-06 04:49:00,
2014-01-05 23:54:00,73.3,70.2,30.00,N/A,-737280,0.0,-999.0,90,0.00,,,0.00,Wunderground v.1.15,2014-01-06 04:54:00,
2014-01-05 23:59:00,73.2,70.4,30.00,WSW,248,0.0,-999.0,91,0.00,,,0.00,Wunderground v.1.15,2014-01-06 04:59:00,